sensor_id;sensor_type;location;lat;lon;timestamp;temperature;humidity
52965;DHT22;42923;53.220;6.528;2023-03-04T00:00:58;6.00;99.90
52965;DHT22;42923;53.220;6.528;2023-03-04T00:03:23;6.00;99.90
52965;DHT22;42923;53.220;6.528;2023-03-04T00:05:49;6.00;99.90
52965;DHT22;42923;53.220;6.528;2023-03-04T00:08:15;6.00;99.90
52965;DHT22;42923;53.220;6.528;2023-03-04T00:10:40;6.00;99.90
52965;DHT22;42923;53.220;6.528;2023-03-04T00:13:06;6.10;99.90
52965;DHT22;42923;53.220;6.528;2023-03-04T00:15:32;6.10;99.90
52965;DHT22;42923;53.220;6.528;2023-03-04T00:17:57;6.10;99.90
52965;DHT22;42923;53.220;6.528;2023-03-04T00:20:23;6.10;99.90
52965;DHT22;42923;53.220;6.528;2023-03-04T00:22:49;6.10;99.90
52965;DHT22;42923;53.220;6.528;2023-03-04T00:25:15;6.40;99.90
52965;DHT22;42923;53.220;6.528;2023-03-04T00:27:40;6.10;99.90
52965;DHT22;42923;53.220;6.528;2023-03-04T00:30:07;6.00;99.90
52965;DHT22;42923;53.220;6.528;2023-03-04T00:32:34;6.00;99.90
52965;DHT22;42923;53.220;6.528;2023-03-04T00:35:00;6.10;99.90
52965;DHT22;42923;53.220;6.528;2023-03-04T00:37:25;6.10;99.90
52965;DHT22;42923;53.220;6.528;2023-03-04T00:39:51;6.10;99.90
52965;DHT22;42923;53.220;6.528;2023-03-04T00:42:17;6.10;99.90
52965;DHT22;42923;53.220;6.528;2023-03-04T00:44:42;6.10;99.90
52965;DHT22;42923;53.220;6.528;2023-03-04T00:47:08;6.10;99.90
52965;DHT22;42923;53.220;6.528;2023-03-04T00:49:34;6.10;99.90
52965;DHT22;42923;53.220;6.528;2023-03-04T00:51:59;6.10;99.90
52965;DHT22;42923;53.220;6.528;2023-03-04T00:54:25;6.10;99.90
52965;DHT22;42923;53.220;6.528;2023-03-04T00:56:51;6.10;99.90
52965;DHT22;42923;53.220;6.528;2023-03-04T00:59:17;6.00;99.90
52965;DHT22;42923;53.220;6.528;2023-03-04T01:01:43;6.10;99.90
52965;DHT22;42923;53.220;6.528;2023-03-04T01:04:08;6.10;99.90
52965;DHT22;42923;53.220;6.528;2023-03-04T01:06:34;6.00;99.90
52965;DHT22;42923;53.220;6.528;2023-03-04T01:09:00;6.00;99.90
52965;DHT22;42923;53.220;6.528;2023-03-04T01:11:26;6.00;99.90
52965;DHT22;42923;53.220;6.528;2023-03-04T01:13:52;6.00;99.90
52965;DHT22;42923;53.220;6.528;2023-03-04T01:16:17;6.00;99.90
52965;DHT22;42923;53.220;6.528;2023-03-04T01:18:43;6.00;99.90
52965;DHT22;42923;53.220;6.528;2023-03-04T01:21:09;6.00;99.90
52965;DHT22;42923;53.220;6.528;2023-03-04T01:23:35;6.00;99.90
52965;DHT22;42923;53.220;6.528;2023-03-04T01:26:01;6.00;99.90
52965;DHT22;42923;53.220;6.528;2023-03-04T01:28:26;6.00;99.90
52965;DHT22;42923;53.220;6.528;2023-03-04T01:30:52;5.90;99.90
52965;DHT22;42923;53.220;6.528;2023-03-04T01:33:18;6.10;99.90
52965;DHT22;42923;53.220;6.528;2023-03-04T01:35:43;5.90;99.90
52965;DHT22;42923;53.220;6.528;2023-03-04T01:38:09;5.90;99.90
52965;DHT22;42923;53.220;6.528;2023-03-04T01:40:36;5.90;99.90
52965;DHT22;42923;53.220;6.528;2023-03-04T01:43:02;5.90;99.90
52965;DHT22;42923;53.220;6.528;2023-03-04T01:45:29;5.90;99.90
52965;DHT22;42923;53.220;6.528;2023-03-04T01:47:55;5.80;99.90
52965;DHT22;42923;53.220;6.528;2023-03-04T01:50:23;5.80;99.90
52965;DHT22;42923;53.220;6.528;2023-03-04T01:52:50;5.80;99.90
52965;DHT22;42923;53.220;6.528;2023-03-04T01:55:18;5.80;99.90
52965;DHT22;42923;53.220;6.528;2023-03-04T01:57:45;5.70;99.90
52965;DHT22;42923;53.220;6.528;2023-03-04T02:02:45;5.70;99.90
52965;DHT22;42923;53.220;6.528;2023-03-04T02:05:11;6.00;99.90
52965;DHT22;42923;53.220;6.528;2023-03-04T02:07:38;5.70;99.90
52965;DHT22;42923;53.220;6.528;2023-03-04T02:10:04;5.70;99.90
52965;DHT22;42923;53.220;6.528;2023-03-04T02:12:30;5.70;99.90
52965;DHT22;42923;53.220;6.528;2023-03-04T02:14:57;5.70;99.90
52965;DHT22;42923;53.220;6.528;2023-03-04T02:17:27;5.80;99.90
52965;DHT22;42923;53.220;6.528;2023-03-04T02:22:27;5.80;99.90
52965;DHT22;42923;53.220;6.528;2023-03-04T02:25:01;5.70;99.90
52965;DHT22;42923;53.220;6.528;2023-03-04T02:27:28;5.80;99.90
52965;DHT22;42923;53.220;6.528;2023-03-04T02:29:53;5.80;99.90
52965;DHT22;42923;53.220;6.528;2023-03-04T02:32:19;5.90;99.90
52965;DHT22;42923;53.220;6.528;2023-03-04T02:34:49;5.90;99.90
52965;DHT22;42923;53.220;6.528;2023-03-04T02:37:17;5.90;99.90
52965;DHT22;42923;53.220;6.528;2023-03-04T02:39:45;5.90;99.90
52965;DHT22;42923;53.220;6.528;2023-03-04T02:42:12;5.90;99.90
52965;DHT22;42923;53.220;6.528;2023-03-04T02:44:40;5.80;99.90
52965;DHT22;42923;53.220;6.528;2023-03-04T02:47:09;6.30;99.90
52965;DHT22;42923;53.220;6.528;2023-03-04T02:49:37;5.90;99.90
52965;DHT22;42923;53.220;6.528;2023-03-04T02:52:09;5.90;99.90
52965;DHT22;42923;53.220;6.528;2023-03-04T02:54:36;5.90;99.90
52965;DHT22;42923;53.220;6.528;2023-03-04T02:57:06;5.90;99.90
52965;DHT22;42923;53.220;6.528;2023-03-04T02:59:36;5.90;99.90
52965;DHT22;42923;53.220;6.528;2023-03-04T03:02:03;5.80;99.90
52965;DHT22;42923;53.220;6.528;2023-03-04T03:04:28;5.80;99.90
52965;DHT22;42923;53.220;6.528;2023-03-04T03:06:54;5.90;99.90
52965;DHT22;42923;53.220;6.528;2023-03-04T03:09:21;5.90;99.90
52965;DHT22;42923;53.220;6.528;2023-03-04T03:11:47;5.90;99.90
52965;DHT22;42923;53.220;6.528;2023-03-04T03:14:13;5.90;99.90
52965;DHT22;42923;53.220;6.528;2023-03-04T03:16:39;5.90;99.90
52965;DHT22;42923;53.220;6.528;2023-03-04T03:19:05;5.90;99.90
52965;DHT22;42923;53.220;6.528;2023-03-04T03:21:31;5.90;99.90
52965;DHT22;42923;53.220;6.528;2023-03-04T03:23:57;5.90;99.90
52965;DHT22;42923;53.220;6.528;2023-03-04T03:26:23;5.90;99.90
52965;DHT22;42923;53.220;6.528;2023-03-04T03:28:49;5.90;99.90
52965;DHT22;42923;53.220;6.528;2023-03-04T03:31:15;5.90;99.90
52965;DHT22;42923;53.220;6.528;2023-03-04T03:33:45;6.00;99.90
52965;DHT22;42923;53.220;6.528;2023-03-04T03:36:11;6.00;99.90
52965;DHT22;42923;53.220;6.528;2023-03-04T03:38:37;6.00;99.90
52965;DHT22;42923;53.220;6.528;2023-03-04T03:41:03;6.00;99.90
52965;DHT22;42923;53.220;6.528;2023-03-04T03:43:29;6.00;99.90
52965;DHT22;42923;53.220;6.528;2023-03-04T03:45:54;6.00;99.90
52965;DHT22;42923;53.220;6.528;2023-03-04T03:48:20;6.20;99.90
52965;DHT22;42923;53.220;6.528;2023-03-04T03:50:46;6.00;99.90
52965;DHT22;42923;53.220;6.528;2023-03-04T03:53:11;5.90;99.90
52965;DHT22;42923;53.220;6.528;2023-03-04T03:55:37;5.90;99.90
52965;DHT22;42923;53.220;6.528;2023-03-04T03:58:04;5.90;99.90
52965;DHT22;42923;53.220;6.528;2023-03-04T04:00:30;5.90;99.90
52965;DHT22;42923;53.220;6.528;2023-03-04T04:02:57;5.90;99.90
52965;DHT22;42923;53.220;6.528;2023-03-04T04:05:24;5.90;99.90
52965;DHT22;42923;53.220;6.528;2023-03-04T04:07:50;5.90;99.90
52965;DHT22;42923;53.220;6.528;2023-03-04T04:10:15;5.90;99.90
52965;DHT22;42923;53.220;6.528;2023-03-04T04:12:41;5.90;99.90
52965;DHT22;42923;53.220;6.528;2023-03-04T04:15:09;5.90;99.90
52965;DHT22;42923;53.220;6.528;2023-03-04T04:17:35;5.90;99.90
52965;DHT22;42923;53.220;6.528;2023-03-04T04:20:01;5.90;99.90
52965;DHT22;42923;53.220;6.528;2023-03-04T04:22:26;5.80;99.90
52965;DHT22;42923;53.220;6.528;2023-03-04T04:24:52;5.90;99.90
52965;DHT22;42923;53.220;6.528;2023-03-04T04:27:18;5.80;99.90
52965;DHT22;42923;53.220;6.528;2023-03-04T04:29:44;5.80;99.90
52965;DHT22;42923;53.220;6.528;2023-03-04T04:32:09;5.80;99.90
52965;DHT22;42923;53.220;6.528;2023-03-04T04:34:37;5.80;99.90
52965;DHT22;42923;53.220;6.528;2023-03-04T04:37:03;6.00;99.90
52965;DHT22;42923;53.220;6.528;2023-03-04T04:39:29;5.80;99.90
52965;DHT22;42923;53.220;6.528;2023-03-04T04:41:55;5.80;99.90
52965;DHT22;42923;53.220;6.528;2023-03-04T04:44:20;5.80;99.90
52965;DHT22;42923;53.220;6.528;2023-03-04T04:46:46;5.80;99.90
52965;DHT22;42923;53.220;6.528;2023-03-04T04:49:12;5.90;99.90
52965;DHT22;42923;53.220;6.528;2023-03-04T04:51:38;5.90;99.90
52965;DHT22;42923;53.220;6.528;2023-03-04T04:54:04;5.90;99.90
52965;DHT22;42923;53.220;6.528;2023-03-04T04:56:30;5.80;99.90
52965;DHT22;42923;53.220;6.528;2023-03-04T04:58:58;5.90;99.90
52965;DHT22;42923;53.220;6.528;2023-03-04T05:01:24;5.90;99.90
52965;DHT22;42923;53.220;6.528;2023-03-04T05:03:50;6.00;99.90
52965;DHT22;42923;53.220;6.528;2023-03-04T05:06:18;5.90;99.90
52965;DHT22;42923;53.220;6.528;2023-03-04T05:08:45;5.80;99.90
52965;DHT22;42923;53.220;6.528;2023-03-04T05:11:11;5.80;99.90
52965;DHT22;42923;53.220;6.528;2023-03-04T05:13:36;5.80;99.90
52965;DHT22;42923;53.220;6.528;2023-03-04T05:16:02;5.70;99.90
52965;DHT22;42923;53.220;6.528;2023-03-04T05:18:28;5.70;99.90
52965;DHT22;42923;53.220;6.528;2023-03-04T05:20:56;5.70;99.90
52965;DHT22;42923;53.220;6.528;2023-03-04T05:23:23;5.70;99.90
52965;DHT22;42923;53.220;6.528;2023-03-04T05:25:49;5.70;99.90
52965;DHT22;42923;53.220;6.528;2023-03-04T05:28:15;5.70;99.90
52965;DHT22;42923;53.220;6.528;2023-03-04T05:30:43;5.70;99.90
52965;DHT22;42923;53.220;6.528;2023-03-04T05:33:09;5.60;99.90
52965;DHT22;42923;53.220;6.528;2023-03-04T05:35:36;5.60;99.90
52965;DHT22;42923;53.220;6.528;2023-03-04T05:38:06;5.60;99.90
52965;DHT22;42923;53.220;6.528;2023-03-04T05:40:33;5.60;99.90
52965;DHT22;42923;53.220;6.528;2023-03-04T05:42:59;5.60;99.90
52965;DHT22;42923;53.220;6.528;2023-03-04T05:45:25;5.60;99.90
52965;DHT22;42923;53.220;6.528;2023-03-04T05:47:51;5.60;99.90
52965;DHT22;42923;53.220;6.528;2023-03-04T05:50:18;5.60;99.90
52965;DHT22;42923;53.220;6.528;2023-03-04T05:52:44;5.60;99.90
52965;DHT22;42923;53.220;6.528;2023-03-04T05:55:10;5.70;99.90
52965;DHT22;42923;53.220;6.528;2023-03-04T05:57:35;5.60;99.90
52965;DHT22;42923;53.220;6.528;2023-03-04T06:00:02;5.70;99.90
52965;DHT22;42923;53.220;6.528;2023-03-04T06:02:39;5.60;99.90
52965;DHT22;42923;53.220;6.528;2023-03-04T06:05:05;5.60;99.90
52965;DHT22;42923;53.220;6.528;2023-03-04T06:07:31;5.60;99.90
52965;DHT22;42923;53.220;6.528;2023-03-04T06:09:57;5.70;99.90
52965;DHT22;42923;53.220;6.528;2023-03-04T06:12:23;5.70;99.90
52965;DHT22;42923;53.220;6.528;2023-03-04T06:14:48;5.70;99.90
52965;DHT22;42923;53.220;6.528;2023-03-04T06:17:14;5.70;99.90
52965;DHT22;42923;53.220;6.528;2023-03-04T06:19:40;5.90;99.90
52965;DHT22;42923;53.220;6.528;2023-03-04T06:22:09;5.80;99.90
52965;DHT22;42923;53.220;6.528;2023-03-04T06:24:35;5.80;99.90
52965;DHT22;42923;53.220;6.528;2023-03-04T06:27:01;5.70;99.90
52965;DHT22;42923;53.220;6.528;2023-03-04T06:29:27;5.70;99.90
52965;DHT22;42923;53.220;6.528;2023-03-04T06:31:52;5.70;99.90
52965;DHT22;42923;53.220;6.528;2023-03-04T06:34:19;5.60;99.90
52965;DHT22;42923;53.220;6.528;2023-03-04T06:36:45;5.60;99.90
52965;DHT22;42923;53.220;6.528;2023-03-04T06:39:11;5.60;99.90
52965;DHT22;42923;53.220;6.528;2023-03-04T06:41:37;5.60;99.90
52965;DHT22;42923;53.220;6.528;2023-03-04T06:44:03;5.60;99.90
52965;DHT22;42923;53.220;6.528;2023-03-04T06:46:28;5.60;99.90
52965;DHT22;42923;53.220;6.528;2023-03-04T06:48:55;5.60;99.90
52965;DHT22;42923;53.220;6.528;2023-03-04T06:51:20;5.60;99.90
52965;DHT22;42923;53.220;6.528;2023-03-04T06:53:46;5.60;99.90
52965;DHT22;42923;53.220;6.528;2023-03-04T06:56:15;5.60;99.90
52965;DHT22;42923;53.220;6.528;2023-03-04T06:58:42;5.60;99.90
52965;DHT22;42923;53.220;6.528;2023-03-04T07:01:14;5.60;99.90
52965;DHT22;42923;53.220;6.528;2023-03-04T07:03:40;5.60;99.90
52965;DHT22;42923;53.220;6.528;2023-03-04T07:06:06;5.60;99.90
52965;DHT22;42923;53.220;6.528;2023-03-04T07:08:33;5.60;99.90
52965;DHT22;42923;53.220;6.528;2023-03-04T07:10:59;5.70;99.90
52965;DHT22;42923;53.220;6.528;2023-03-04T07:13:24;5.70;99.90
52965;DHT22;42923;53.220;6.528;2023-03-04T07:15:50;5.80;99.90
52965;DHT22;42923;53.220;6.528;2023-03-04T07:18:17;5.80;99.90
52965;DHT22;42923;53.220;6.528;2023-03-04T07:20:42;5.80;99.90
52965;DHT22;42923;53.220;6.528;2023-03-04T07:23:08;5.80;99.90
52965;DHT22;42923;53.220;6.528;2023-03-04T07:25:34;5.70;99.90
52965;DHT22;42923;53.220;6.528;2023-03-04T07:28:00;5.70;99.90
52965;DHT22;42923;53.220;6.528;2023-03-04T07:30:25;5.80;99.90
52965;DHT22;42923;53.220;6.528;2023-03-04T07:32:52;5.80;99.90
52965;DHT22;42923;53.220;6.528;2023-03-04T07:35:17;5.80;99.90
52965;DHT22;42923;53.220;6.528;2023-03-04T07:37:43;5.90;99.90
52965;DHT22;42923;53.220;6.528;2023-03-04T07:40:09;5.90;99.90
52965;DHT22;42923;53.220;6.528;2023-03-04T07:42:35;6.00;99.90
52965;DHT22;42923;53.220;6.528;2023-03-04T07:45:08;6.10;99.90
52965;DHT22;42923;53.220;6.528;2023-03-04T07:47:34;6.10;99.90
52965;DHT22;42923;53.220;6.528;2023-03-04T07:50:00;6.10;99.90
52965;DHT22;42923;53.220;6.528;2023-03-04T07:52:25;6.20;99.90
52965;DHT22;42923;53.220;6.528;2023-03-04T07:54:51;6.20;99.90
52965;DHT22;42923;53.220;6.528;2023-03-04T07:57:17;6.20;99.90
52965;DHT22;42923;53.220;6.528;2023-03-04T07:59:42;6.20;99.90
52965;DHT22;42923;53.220;6.528;2023-03-04T08:02:09;6.30;99.90
52965;DHT22;42923;53.220;6.528;2023-03-04T08:04:35;6.20;99.90
52965;DHT22;42923;53.220;6.528;2023-03-04T08:07:01;6.10;99.90
52965;DHT22;42923;53.220;6.528;2023-03-04T08:09:26;6.00;99.90
52965;DHT22;42923;53.220;6.528;2023-03-04T08:11:52;6.00;99.90
52965;DHT22;42923;53.220;6.528;2023-03-04T08:14:18;6.00;99.90
52965;DHT22;42923;53.220;6.528;2023-03-04T08:16:44;6.00;99.90
52965;DHT22;42923;53.220;6.528;2023-03-04T08:19:10;6.00;99.90
52965;DHT22;42923;53.220;6.528;2023-03-04T08:21:36;6.00;99.90
52965;DHT22;42923;53.220;6.528;2023-03-04T08:24:03;6.20;99.90
52965;DHT22;42923;53.220;6.528;2023-03-04T08:26:36;6.00;99.90
52965;DHT22;42923;53.220;6.528;2023-03-04T08:29:03;6.10;99.90
52965;DHT22;42923;53.220;6.528;2023-03-04T08:31:30;6.10;99.90
52965;DHT22;42923;53.220;6.528;2023-03-04T08:33:56;6.10;99.90
52965;DHT22;42923;53.220;6.528;2023-03-04T08:36:22;6.10;99.90
52965;DHT22;42923;53.220;6.528;2023-03-04T08:38:48;6.20;99.90
52965;DHT22;42923;53.220;6.528;2023-03-04T08:41:14;6.20;99.90
52965;DHT22;42923;53.220;6.528;2023-03-04T08:43:40;6.10;99.90
52965;DHT22;42923;53.220;6.528;2023-03-04T08:46:05;6.10;99.90
52965;DHT22;42923;53.220;6.528;2023-03-04T08:48:32;6.10;99.90
52965;DHT22;42923;53.220;6.528;2023-03-04T08:50:58;6.20;99.90
52965;DHT22;42923;53.220;6.528;2023-03-04T08:53:24;6.20;99.90
52965;DHT22;42923;53.220;6.528;2023-03-04T08:55:51;6.20;99.90
52965;DHT22;42923;53.220;6.528;2023-03-04T08:58:17;6.20;99.90
52965;DHT22;42923;53.220;6.528;2023-03-04T09:00:44;6.20;99.90
52965;DHT22;42923;53.220;6.528;2023-03-04T09:03:14;6.20;99.90
52965;DHT22;42923;53.220;6.528;2023-03-04T09:05:40;6.30;99.90
52965;DHT22;42923;53.220;6.528;2023-03-04T09:08:06;6.30;99.90
52965;DHT22;42923;53.220;6.528;2023-03-04T09:10:32;6.40;99.90
52965;DHT22;42923;53.220;6.528;2023-03-04T09:12:58;6.40;99.90
52965;DHT22;42923;53.220;6.528;2023-03-04T09:15:25;6.40;99.90
52965;DHT22;42923;53.220;6.528;2023-03-04T09:17:51;6.50;99.90
52965;DHT22;42923;53.220;6.528;2023-03-04T09:20:16;6.50;99.90
52965;DHT22;42923;53.220;6.528;2023-03-04T09:22:42;6.60;99.90
52965;DHT22;42923;53.220;6.528;2023-03-04T09:25:10;6.60;99.90
52965;DHT22;42923;53.220;6.528;2023-03-04T09:27:38;6.60;99.90
52965;DHT22;42923;53.220;6.528;2023-03-04T09:30:04;6.60;99.90
52965;DHT22;42923;53.220;6.528;2023-03-04T09:32:29;6.60;99.90
52965;DHT22;42923;53.220;6.528;2023-03-04T09:34:55;6.60;99.90
52965;DHT22;42923;53.220;6.528;2023-03-04T09:37:21;6.50;99.90
52965;DHT22;42923;53.220;6.528;2023-03-04T09:39:46;6.50;99.90
52965;DHT22;42923;53.220;6.528;2023-03-04T09:42:27;6.60;99.90
52965;DHT22;42923;53.220;6.528;2023-03-04T09:44:57;6.60;99.90
52965;DHT22;42923;53.220;6.528;2023-03-04T09:47:23;6.80;99.90
52965;DHT22;42923;53.220;6.528;2023-03-04T09:50:00;6.70;99.90
52965;DHT22;42923;53.220;6.528;2023-03-04T09:52:29;6.80;99.90
52965;DHT22;42923;53.220;6.528;2023-03-04T10:00:46;7.10;99.90
52965;DHT22;42923;53.220;6.528;2023-03-04T10:04:00;7.20;99.90
52965;DHT22;42923;53.220;6.528;2023-03-04T10:06:10;7.20;99.90
52965;DHT22;42923;53.220;6.528;2023-03-04T10:08:46;7.40;99.90
52965;DHT22;42923;53.220;6.528;2023-03-04T10:16:50;6.80;99.90
52965;DHT22;42923;53.220;6.528;2023-03-04T10:22:34;6.90;99.90
52965;DHT22;42923;53.220;6.528;2023-03-04T10:28:05;7.10;99.90
52965;DHT22;42923;53.220;6.528;2023-03-04T10:33:22;7.10;99.90
52965;DHT22;42923;53.220;6.528;2023-03-04T10:36:03;7.10;99.90
52965;DHT22;42923;53.220;6.528;2023-03-04T10:38:32;7.10;99.90
52965;DHT22;42923;53.220;6.528;2023-03-04T10:40:58;7.10;99.90
52965;DHT22;42923;53.220;6.528;2023-03-04T10:43:24;7.10;99.90
52965;DHT22;42923;53.220;6.528;2023-03-04T10:45:57;7.20;99.90
52965;DHT22;42923;53.220;6.528;2023-03-04T10:48:26;7.10;99.90
52965;DHT22;42923;53.220;6.528;2023-03-04T10:50:52;7.10;99.90
52965;DHT22;42923;53.220;6.528;2023-03-04T10:53:32;7.30;99.90
52965;DHT22;42923;53.220;6.528;2023-03-04T10:56:01;7.50;99.90
52965;DHT22;42923;53.220;6.528;2023-03-04T10:58:27;7.60;99.90
52965;DHT22;42923;53.220;6.528;2023-03-04T11:01:03;7.60;99.90
52965;DHT22;42923;53.220;6.528;2023-03-04T11:03:32;7.70;99.90
52965;DHT22;42923;53.220;6.528;2023-03-04T11:08:30;7.70;99.90
52965;DHT22;42923;53.220;6.528;2023-03-04T11:10:56;7.70;99.90
52965;DHT22;42923;53.220;6.528;2023-03-04T11:13:24;7.60;99.90
52965;DHT22;42923;53.220;6.528;2023-03-04T11:21:05;7.60;99.90
52965;DHT22;42923;53.220;6.528;2023-03-04T11:26:28;8.20;99.90
52965;DHT22;42923;53.220;6.528;2023-03-04T11:31:37;8.90;99.90
52965;DHT22;42923;53.220;6.528;2023-03-04T11:34:19;8.60;99.90
52965;DHT22;42923;53.220;6.528;2023-03-04T11:39:56;8.30;99.90
52965;DHT22;42923;53.220;6.528;2023-03-04T11:42:46;8.70;99.90
52965;DHT22;42923;53.220;6.528;2023-03-04T11:45:15;9.20;99.90
52965;DHT22;42923;53.220;6.528;2023-03-04T11:50:21;9.20;99.90
52965;DHT22;42923;53.220;6.528;2023-03-04T11:58:48;8.60;99.90
52965;DHT22;42923;53.220;6.528;2023-03-04T12:01:35;8.60;99.90
52965;DHT22;42923;53.220;6.528;2023-03-04T12:10:02;8.70;99.90
52965;DHT22;42923;53.220;6.528;2023-03-04T12:15:22;8.50;99.90
52965;DHT22;42923;53.220;6.528;2023-03-04T12:26:48;8.10;99.90
52965;DHT22;42923;53.220;6.528;2023-03-04T12:29:33;7.90;99.90
52965;DHT22;42923;53.220;6.528;2023-03-04T12:32:17;7.90;99.90
52965;DHT22;42923;53.220;6.528;2023-03-04T12:43:29;9.80;99.90
52965;DHT22;42923;53.220;6.528;2023-03-04T12:48:41;10.10;99.90
52965;DHT22;42923;53.220;6.528;2023-03-04T12:53:54;10.60;99.90
52965;DHT22;42923;53.220;6.528;2023-03-04T12:56:40;10.20;99.90
52965;DHT22;42923;53.220;6.528;2023-03-04T12:59:14;9.60;99.90
52965;DHT22;42923;53.220;6.528;2023-03-04T13:04:59;8.30;99.90
52965;DHT22;42923;53.220;6.528;2023-03-04T13:07:57;8.00;99.90
52965;DHT22;42923;53.220;6.528;2023-03-04T13:10:26;7.70;99.90
52965;DHT22;42923;53.220;6.528;2023-03-04T13:12:57;7.60;99.90
52965;DHT22;42923;53.220;6.528;2023-03-04T13:17:49;8.20;99.90
52965;DHT22;42923;53.220;6.528;2023-03-04T13:23:24;9.00;99.90
52965;DHT22;42923;53.220;6.528;2023-03-04T13:28:31;8.10;99.90
52965;DHT22;42923;53.220;6.528;2023-03-04T13:36:00;8.90;99.90
52965;DHT22;42923;53.220;6.528;2023-03-04T13:41:17;10.00;99.90
52965;DHT22;42923;53.220;6.528;2023-03-04T13:43:51;10.10;99.90
52965;DHT22;42923;53.220;6.528;2023-03-04T13:51:34;9.20;99.90
52965;DHT22;42923;53.220;6.528;2023-03-04T13:59:20;8.50;99.90
52965;DHT22;42923;53.220;6.528;2023-03-04T14:06:50;8.30;99.90
52965;DHT22;42923;53.220;6.528;2023-03-04T14:09:23;8.20;99.90
52965;DHT22;42923;53.220;6.528;2023-03-04T14:11:50;8.10;99.90
52965;DHT22;42923;53.220;6.528;2023-03-04T14:14:23;8.20;99.90
52965;DHT22;42923;53.220;6.528;2023-03-04T14:16:52;8.20;99.90
52965;DHT22;42923;53.220;6.528;2023-03-04T14:21:52;7.70;99.90
52965;DHT22;42923;53.220;6.528;2023-03-04T14:24:20;7.20;99.90
52965;DHT22;42923;53.220;6.528;2023-03-04T14:26:46;6.70;99.90
52965;DHT22;42923;53.220;6.528;2023-03-04T14:29:28;6.70;99.90
52965;DHT22;42923;53.220;6.528;2023-03-04T14:31:55;7.00;99.90
52965;DHT22;42923;53.220;6.528;2023-03-04T14:34:33;7.20;99.90
52965;DHT22;42923;53.220;6.528;2023-03-04T14:37:01;7.10;99.90
52965;DHT22;42923;53.220;6.528;2023-03-04T14:39:32;7.20;99.90
52965;DHT22;42923;53.220;6.528;2023-03-04T14:42:09;7.20;99.90
52965;DHT22;42923;53.220;6.528;2023-03-04T14:44:50;7.20;99.90
52965;DHT22;42923;53.220;6.528;2023-03-04T14:47:38;6.90;99.90
52965;DHT22;42923;53.220;6.528;2023-03-04T14:50:06;6.50;99.90
52965;DHT22;42923;53.220;6.528;2023-03-04T14:52:49;6.30;99.90
52965;DHT22;42923;53.220;6.528;2023-03-04T14:55:23;6.30;99.90
52965;DHT22;42923;53.220;6.528;2023-03-04T14:57:52;6.30;99.90
52965;DHT22;42923;53.220;6.528;2023-03-04T15:00:33;6.40;99.90
52965;DHT22;42923;53.220;6.528;2023-03-04T15:03:26;6.50;99.90
52965;DHT22;42923;53.220;6.528;2023-03-04T15:05:53;6.50;99.90
52965;DHT22;42923;53.220;6.528;2023-03-04T15:08:36;6.40;99.90
52965;DHT22;42923;53.220;6.528;2023-03-04T15:11:04;6.30;99.90
52965;DHT22;42923;53.220;6.528;2023-03-04T15:16:03;6.20;99.90
52965;DHT22;42923;53.220;6.528;2023-03-04T15:18:29;6.10;99.90
52965;DHT22;42923;53.220;6.528;2023-03-04T15:21:00;6.20;99.90
52965;DHT22;42923;53.220;6.528;2023-03-04T15:23:28;6.30;99.90
52965;DHT22;42923;53.220;6.528;2023-03-04T15:25:57;6.20;99.90
52965;DHT22;42923;53.220;6.528;2023-03-04T15:28:24;6.20;99.90
52965;DHT22;42923;53.220;6.528;2023-03-04T15:30:51;6.10;99.90
52965;DHT22;42923;53.220;6.528;2023-03-04T15:33:17;6.10;99.90
52965;DHT22;42923;53.220;6.528;2023-03-04T15:35:51;6.10;99.90
52965;DHT22;42923;53.220;6.528;2023-03-04T15:38:18;6.10;99.90
52965;DHT22;42923;53.220;6.528;2023-03-04T15:40:45;6.10;99.90
52965;DHT22;42923;53.220;6.528;2023-03-04T15:43:15;6.10;99.90
52965;DHT22;42923;53.220;6.528;2023-03-04T15:45:41;6.10;99.90
52965;DHT22;42923;53.220;6.528;2023-03-04T15:48:13;6.00;99.90
52965;DHT22;42923;53.220;6.528;2023-03-04T15:50:44;5.90;99.90
52965;DHT22;42923;53.220;6.528;2023-03-04T15:55:58;5.50;99.90
52965;DHT22;42923;53.220;6.528;2023-03-04T15:58:25;5.40;99.90
52965;DHT22;42923;53.220;6.528;2023-03-04T16:00:51;5.30;99.90
52965;DHT22;42923;53.220;6.528;2023-03-04T16:03:18;5.30;99.90
52965;DHT22;42923;53.220;6.528;2023-03-04T16:05:47;5.20;99.90
52965;DHT22;42923;53.220;6.528;2023-03-04T16:08:15;5.30;99.90
52965;DHT22;42923;53.220;6.528;2023-03-04T16:10:42;5.40;99.90
52965;DHT22;42923;53.220;6.528;2023-03-04T16:13:14;5.50;99.90
52965;DHT22;42923;53.220;6.528;2023-03-04T16:15:40;5.50;99.90
52965;DHT22;42923;53.220;6.528;2023-03-04T16:18:05;5.50;99.90
52965;DHT22;42923;53.220;6.528;2023-03-04T16:20:33;5.50;99.90
52965;DHT22;42923;53.220;6.528;2023-03-04T16:23:00;5.50;99.90
52965;DHT22;42923;53.220;6.528;2023-03-04T16:25:27;5.40;99.90
52965;DHT22;42923;53.220;6.528;2023-03-04T16:27:54;5.40;99.90
52965;DHT22;42923;53.220;6.528;2023-03-04T16:30:29;5.40;99.90
52965;DHT22;42923;53.220;6.528;2023-03-04T16:32:54;5.40;99.90
52965;DHT22;42923;53.220;6.528;2023-03-04T16:35:21;5.40;99.90
52965;DHT22;42923;53.220;6.528;2023-03-04T16:37:50;5.40;99.90
52965;DHT22;42923;53.220;6.528;2023-03-04T16:40:19;5.30;99.90
52965;DHT22;42923;53.220;6.528;2023-03-04T16:42:47;5.30;99.90
52965;DHT22;42923;53.220;6.528;2023-03-04T16:45:19;5.30;99.90
52965;DHT22;42923;53.220;6.528;2023-03-04T16:47:46;5.30;99.90
52965;DHT22;42923;53.220;6.528;2023-03-04T16:50:14;5.30;99.90
52965;DHT22;42923;53.220;6.528;2023-03-04T16:52:46;5.20;99.90
52965;DHT22;42923;53.220;6.528;2023-03-04T16:55:19;5.20;99.90
52965;DHT22;42923;53.220;6.528;2023-03-04T16:57:45;5.20;99.90
52965;DHT22;42923;53.220;6.528;2023-03-04T17:00:13;5.10;99.90
52965;DHT22;42923;53.220;6.528;2023-03-04T17:02:39;5.10;99.90
52965;DHT22;42923;53.220;6.528;2023-03-04T17:05:05;5.00;99.90
52965;DHT22;42923;53.220;6.528;2023-03-04T17:07:31;4.80;99.90
52965;DHT22;42923;53.220;6.528;2023-03-04T17:09:57;4.70;99.90
52965;DHT22;42923;53.220;6.528;2023-03-04T17:12:23;4.60;99.90
52965;DHT22;42923;53.220;6.528;2023-03-04T17:14:49;4.50;99.90
52965;DHT22;42923;53.220;6.528;2023-03-04T17:17:14;4.50;99.90
52965;DHT22;42923;53.220;6.528;2023-03-04T17:19:40;4.40;99.90
52965;DHT22;42923;53.220;6.528;2023-03-04T17:22:07;4.40;99.90
52965;DHT22;42923;53.220;6.528;2023-03-04T17:24:33;4.30;99.90
52965;DHT22;42923;53.220;6.528;2023-03-04T17:26:59;4.20;99.90
52965;DHT22;42923;53.220;6.528;2023-03-04T17:29:24;4.20;99.90
52965;DHT22;42923;53.220;6.528;2023-03-04T17:31:50;4.20;99.90
52965;DHT22;42923;53.220;6.528;2023-03-04T17:34:17;4.20;99.90
52965;DHT22;42923;53.220;6.528;2023-03-04T17:36:43;4.10;99.90
52965;DHT22;42923;53.220;6.528;2023-03-04T17:39:10;4.20;99.90
52965;DHT22;42923;53.220;6.528;2023-03-04T17:41:36;4.10;99.90
52965;DHT22;42923;53.220;6.528;2023-03-04T17:44:02;4.10;99.90
52965;DHT22;42923;53.220;6.528;2023-03-04T17:46:28;4.10;99.90
52965;DHT22;42923;53.220;6.528;2023-03-04T17:48:55;4.10;99.90
52965;DHT22;42923;53.220;6.528;2023-03-04T17:51:40;4.30;99.90
52965;DHT22;42923;53.220;6.528;2023-03-04T17:54:08;4.10;99.90